Tinian Mariana Islands, Northern Mariana Islands
Current Conditions -  °F | °C
As of 12:54 PM on Sunday 26 Oct 2014 (Local Time) from PGSN Reporting Station
Few Clouds Few Clouds  
Wind Chill: 83°   Ceiling: Unl
Heat Index: 93°   Visibility: 10mi
Dew Point: 78°   Wind: 10mph
Humidity: 85%   Direction: 100°E
Pressure: 29.86"   Gusts: NA
Location:  15.084°N, 145.652°E
Report Text: PGSN 260254Z 10009KT 10SM FEW019 28/26 A2986 RMK AO2 RAE35 SLP133 P0012 60017 T02830256 56020 $
Loading
Personal Weather Stations






























Interactive Weather Map
Tropical Storm Tracking
New forecast layout! Learn more

10-Day Weather Forecast

Advertisements
Track Severe Weather on mobile